AirNav   Air Wisconsin pilot careers
 
 382 users online  

43K Marion Municipal Airport
Marion, Kansas, USA

GOING TO MARION?


FAA INFORMATION EFFECTIVE 19 JULY 2018

Location

FAA Identifier: 43K
Lat/Long: 38-20-15.4000N / 096-59-17.7000W
38-20.256667N / 096-59.295000W
38.3376111 / -96.9882500
(estimated)
Elevation: 1390 ft. / 424 m (estimated)
Variation: 07E (1985)
From city: 2 miles SE of MARION, KS
Time zone: UTC -5 (UTC -6 during Standard Time)
Zip code: 66861

Airport Operations

Airport use: Open to the public
Activation date: 12/1945
Control tower: no
ARTCC: KANSAS CITY CENTER
FSS: WICHITA FLIGHT SERVICE STATION
NOTAMs facility: ICT (NOTAM-D service available)
Attendance: UNATNDD
PHONE AVBL 24 HRS.
Wind indicator: yes
Segmented circle: no
Beacon: white-green (lighted land airport)
Operates sunset to sunrise.

Airport Communications

CTAF: 122.9

Nearby radio navigation aids

VOR radial/distance  VOR name  Freq  Var
FRIr183/(38.4)FORT RILEY VOR109.4006E

 
NDB name  Hdg/Dist  Freq  Var  ID
NEWTON033/21.228106EEWK . .-- -.-
HERINGTON195/22.940706EHRU .... .-. ..-

Airport Services

Fuel available: 100LL MOGAS
Parking: hangars and tiedowns
Airframe service: NONE
Powerplant service: NONE
Bottled oxygen: NONE
Bulk oxygen: NONE

Runway Information

Runway 17/35

Dimensions: 2573 x 40 ft. / 784 x 12 m
Surface: asphalt, in good condition
Runway edge lights: low intensity
Runway edge markings: RWY 35 ALIGNMENT NUMBERS FADED.
RUNWAY 17  RUNWAY 35
Latitude: 38-20.455545N38-20.031528N
Longitude: 096-59.227317W096-59.227317W
Elevation: 1382.0 ft.1378.0 ft.
Traffic pattern: leftleft
Runway heading: 173 magnetic, 180 true353 magnetic, 000 true
Markings: numbers only, in good conditionnumbers only, in good condition

Runway 3/21

Dimensions: 2745 x 95 ft. / 837 x 29 m
Surface: turf, in good condition
RY 03/21 IS SLIGHTLY ROUGH.
Runway edge markings: 03/21 THLDS & EDGES MKD WITH YELLOW PAINTED TIRES.
RUNWAY 3  RUNWAY 21
Traffic pattern: leftleft
Obstructions: 4 ft. fence
THE PROXIMITY OF THE FENCE TO THE RWY ESTABLISHES THE CONTROLLING OBSTRUCTION. THE 35' TO 40' TREES DIRECTLY BEHIND WOULD BE MORE OF A CONCERN FOR APPROACHING AIRCRAFT.
22 ft. pline, 735 ft. from runway, 170 ft. left of centerline, 33:1 slope to clear

Runway 13/31

Dimensions: 2722 x 50 ft. / 830 x 15 m
Surface: turf, in good condition
Runway edge markings: 13/31 THLD & EDGES MKD WITH YELLOW PAINTED TIRES.
RUNWAY 13  RUNWAY 31
Traffic pattern: leftleft
Obstructions: 14 ft. treesnone

Runway 18/36

Dimensions: 2310 x 67 ft. / 704 x 20 m
Surface: turf, in good condition
Runway edge markings: RY 18/36 THLD DELINEATED WITH YELLOW PAINTED TIRES.
RUNWAY 18  RUNWAY 36
Latitude: 38-20.459450N38-20.079648N
Longitude: 096-59.352258W096-59.385003W
Elevation: 1380.0 ft.1378.0 ft.
Traffic pattern: leftleft
Runway heading: 177 magnetic, 184 true357 magnetic, 004 true
Obstructions: 4 ft. fence, 9 ft. from runway, 30 ft. left and right of centerline, 2:1 slope to clearnone

Airport Ownership and Management from official FAA records

Ownership: Publicly-owned
Owner: CITY OF MARION
208 EAST SANTA FE
MARION, KS 66861
Phone 620-382-3703
Manager: DOUG KJELLIN
208 EAST SANTA FE
MARION, KS 66861
Phone 620-382-3703
MR.MAYFIELD IS CITY MGR. OF MARION KS.

Airport Operational Statistics

Aircraft based on the field: 17
Single engine airplanes: 16
Ultralights: 1
    
Aircraft operations: avg 25/day *
66% local general aviation
33% transient general aviation
<1% military
* for 12-month period ending 29 September 2016

Additional Remarks

A58-35 RWY 35 ROAD ABANDONED & IS GATED FM TRAFFIC. +4 FT FENCE; 70 FT FRM END OF RWY; BOTH SIDES OF RWY.
A58-17 +4' FENCE 5' FROM RWY END 30' L & R OF CNTRLEN; LOWERED AT RWY.

Instrument Procedures

There are no published instrument procedures at 43K.

Some nearby airports with instrument procedures:

KEWK - Newton City/County Airport (22 nm SW)
KHRU - Herington Regional Airport (23 nm N)
47K - Moundridge Municipal Airport (25 nm W)
KMPR - Mc Pherson Airport (33 nm W)
1K1 - Lloyd Stearman Field Airport (34 nm S)
 
Loc | Ops | Rwys | IFR | FBO | Links
Com | Nav | Svcs | Stats | Notes

Kansas City Aviation Department
 
Area around 43K (Marion Municipal Airport)
 
Road maps at: MapQuest Bing Google
 
Aerial photo
WARNING: Photo may not be current or correct
Aerial photo of 43K (Marion Municipal Airport)
Photo by Paul Hodson
Photo taken 21-Jan-2006
taken from a C182 from the northwest

Do you have a better or more recent aerial photo of Marion Municipal Airport that you would like to share? If so, please send us your photo.

 
Sectional chart

 
Airport distance calculator
Flying to Marion Municipal Airport? Find the distance to fly.

From to 43K

Sunrise and sunset
Times for 19-Jul-2018
 Local
(UTC-5)
 Zulu
(UTC)
Morning civil twilight05:5010:50
Sunrise06:2011:20
Sunset20:4801:48
Evening civil twilight21:1802:18

Current date and time
Zulu (UTC)  19-Jul-2018 09:41:42
Local (UTC-5)  19-Jul-2018 04:41:42
 
METAR
KEWK 
22nm SW 
190856Z AUTO 22007KT 10SM CLR 24/22 A2990 RMK AO2 SLP108 T02390222 56006
K1K1 
34nm S 
190915Z AUTO 23003KT 10SM CLR 23/21 A2990 RMK AO2 T02250214
KEQA 
35nm S 
190915Z AUTO 18003KT 10SM CLR A2989 RMK AO2
KAAO 
37nm S 
190854Z AUTO 22004KT 10SM CLR 25/22 A2989 RMK AO2 SLP106 T02500222 55008
KEMP 
37nm E 
190853Z AUTO 00000KT 10SM CLR 23/21 A2989 RMK AO2 SLP110 T02280211 56005
KBEC 
40nm S 
190915Z AUTO 23004KT 10SM CLR 24/22 A2990 RMK AO2 T02390215
K3AU 
40nm S 
190915Z AUTO 00000KT 10SM CLR 22/22 A2990 RMK AO2
KSLN 
41nm NW 
190853Z AUTO 00000KT 10SM CLR 24/23 A2988 RMK AO2 SLP104 T02440228 56006
KFRI 
43nm N 
190856Z AUTO 00000KT 10SM CLR 24/22 A2986 RMK AO2 SLP099 T02390221 58003
KHUT 
44nm W 
190852Z AUTO 21004KT 10SM CLR 24/23 A2990 RMK AO2 SLP100 T02440233 55000
TAF
KSLN 
41nm NW 
190522Z 1906/2006 15006KT P6SM VCTS SCT090CB BKN250 FM191000 22006KT P6SM SCT120 FM191500 VRB04KT P6SM SCT060 FM192200 04007KT P6SM SCT100
KFRI 
43nm N 
190800Z 1908/2014 VRB06KT 9999 BKN055 QNH2985INS BECMG 1908/1909 VRB06KT 9999 BKN050 QNH2981INS BECMG 1914/1915 23009KT 9999 FEW070 QNH2979INS BECMG 1919/1920 30009KT 9999 SCT080 QNH2975INS BECMG 2000/2001 VRB06KT 9999 FEW100 QNH2980INS TX34/1921Z TN23/1911Z
KHUT 
44nm W 
190522Z 1906/2006 15004KT P6SM FEW250 FM191100 20005KT P6SM SCT120 FM192000 13006KT P6SM SCT060 FM192300 06005KT P6SM SCT120
KIAB 
45nm S 
190200Z 1902/2008 18006KT 9999 SCT040 QNH2986INS BECMG 1914/1915 21009KT 9999 SCT100 QNH2980INS BECMG 1919/1920 36006KT 9999 FEW100 QNH2977INS BECMG 2002/2003 VRB06KT 9999 SKC QNH2980INS TX38/1921Z TN24/1912Z
KICT 
46nm SW 
190522Z 1906/2006 16005KT P6SM FEW250 FM191200 19006KT P6SM SCT120 FM192100 15006KT P6SM SCT060 FM200000 08005KT P6SM SCT120
KMHK 
50nm N 
190520Z 1906/2006 09006KT P6SM SCT100 FM190700 11003KT P6SM VCSH SCT050 FM191000 12003KT P6SM SCT100 FM191800 27007KT P6SM SCT200
NOTAMs
Click for the latest NOTAMs
NOTAMs are issued by the DoD/FAA and will open in a separate window not controlled by AirNav.

 

 
 

Would you like to see your business listed on this page?

 If your business provides an interesting product or service to pilots, flight crews, aircraft, or users of the Marion Municipal Airport, you should consider listing it here.  To start the listing process, click on the button below
 
Add a business
 

Other Pages about Marion Municipal Airport

Update a link
 
Copyright © AirNav, LLC. All rights reserved. Privacy Policy  Contact